Terminal Aerodrome Forecast
Issued by NWS Jackson, MS

Home | Current Version | Previous Version | Text Only | Print | Product List | Glossary On
Versions: 1 2 3 4 5 6 7 8 9 10 11 12
000
FTUS44 KJAN 042339
TAFGLH
TAF
KGLH 042339Z 0500/0524 34006KT P6SM FEW018 OVC080
     FM050700 03007KT P6SM OVC015
     FM051500 05007KT 5SM -RA BR BKN007 OVC015
     FM051900 05008KT 2SM -RA BR OVC007=

USA.gov is the U.S. government's official web portal to all federal, state and local government web resources and services.